sensor_id;sensor_type;location;lat;lon;timestamp;pressure;altitude;pressure_sealevel;temperature;humidity
21234;BME280;10774;42.178;26.578;2023-09-30T00:00:12;100221.41;;;17.40;100.00
21234;BME280;10774;42.178;26.578;2023-09-30T00:02:38;100205.41;;;16.95;100.00
21234;BME280;10774;42.178;26.578;2023-09-30T00:05:04;100217.72;;;17.20;100.00
21234;BME280;10774;42.178;26.578;2023-09-30T00:07:29;100221.06;;;17.34;100.00
21234;BME280;10774;42.178;26.578;2023-09-30T00:09:55;100213.78;;;17.34;100.00
21234;BME280;10774;42.178;26.578;2023-09-30T00:12:20;100216.81;;;17.10;100.00
21234;BME280;10774;42.178;26.578;2023-09-30T00:14:46;100221.28;;;17.21;100.00
21234;BME280;10774;42.178;26.578;2023-09-30T00:17:12;100218.38;;;17.13;100.00
21234;BME280;10774;42.178;26.578;2023-09-30T00:19:37;100213.88;;;17.23;100.00
21234;BME280;10774;42.178;26.578;2023-09-30T00:22:03;100215.19;;;17.08;100.00
21234;BME280;10774;42.178;26.578;2023-09-30T00:24:28;100219.56;;;17.20;100.00
21234;BME280;10774;42.178;26.578;2023-09-30T00:26:54;100221.47;;;17.29;100.00
21234;BME280;10774;42.178;26.578;2023-09-30T00:29:20;100216.41;;;17.15;100.00
21234;BME280;10774;42.178;26.578;2023-09-30T00:31:45;100223.09;;;17.11;100.00
21234;BME280;10774;42.178;26.578;2023-09-30T00:34:11;100226.72;;;17.21;100.00
21234;BME280;10774;42.178;26.578;2023-09-30T00:36:36;100223.06;;;17.32;100.00
21234;BME280;10774;42.178;26.578;2023-09-30T00:39:02;100225.94;;;17.40;100.00
21234;BME280;10774;42.178;26.578;2023-09-30T00:41:27;100221.47;;;17.29;100.00
21234;BME280;10774;42.178;26.578;2023-09-30T00:43:52;100227.63;;;17.31;100.00
21234;BME280;10774;42.178;26.578;2023-09-30T00:46:32;100217.22;;;17.36;100.00
21234;BME280;10774;42.178;26.578;2023-09-30T00:48:58;100208.72;;;17.20;100.00
21234;BME280;10774;42.178;26.578;2023-09-30T00:51:25;100213.41;;;17.18;100.00
21234;BME280;10774;42.178;26.578;2023-09-30T00:53:52;100207.28;;;16.95;100.00
21234;BME280;10774;42.178;26.578;2023-09-30T00:56:19;100200.25;;;16.92;100.00
21234;BME280;10774;42.178;26.578;2023-09-30T00:58:46;100209.44;;;17.22;100.00
21234;BME280;10774;42.178;26.578;2023-09-30T01:01:13;100208.13;;;17.16;100.00
21234;BME280;10774;42.178;26.578;2023-09-30T01:03:39;100206.78;;;17.32;100.00
21234;BME280;10774;42.178;26.578;2023-09-30T01:06:05;100200.56;;;17.41;100.00
21234;BME280;10774;42.178;26.578;2023-09-30T01:08:32;100193.06;;;17.33;100.00
21234;BME280;10774;42.178;26.578;2023-09-30T01:10:58;100197.22;;;17.07;100.00
21234;BME280;10774;42.178;26.578;2023-09-30T01:13:32;100205.00;;;17.21;100.00
21234;BME280;10774;42.178;26.578;2023-09-30T01:15:57;100186.50;;;17.05;100.00
21234;BME280;10774;42.178;26.578;2023-09-30T01:18:22;100199.13;;;17.16;100.00
21234;BME280;10774;42.178;26.578;2023-09-30T01:20:48;100204.81;;;17.13;100.00
21234;BME280;10774;42.178;26.578;2023-09-30T01:23:15;100199.00;;;16.96;100.00
21234;BME280;10774;42.178;26.578;2023-09-30T01:25:40;100185.84;;;16.71;100.00
21234;BME280;10774;42.178;26.578;2023-09-30T01:28:08;100201.84;;;16.42;100.00
21234;BME280;10774;42.178;26.578;2023-09-30T01:30:34;100190.56;;;16.58;100.00
21234;BME280;10774;42.178;26.578;2023-09-30T01:32:59;100195.94;;;16.69;100.00
21234;BME280;10774;42.178;26.578;2023-09-30T01:35:25;100197.59;;;16.81;100.00
21234;BME280;10774;42.178;26.578;2023-09-30T01:37:50;100191.00;;;16.74;100.00
21234;BME280;10774;42.178;26.578;2023-09-30T01:40:16;100193.84;;;16.40;100.00
21234;BME280;10774;42.178;26.578;2023-09-30T01:42:43;100189.38;;;16.51;100.00
21234;BME280;10774;42.178;26.578;2023-09-30T01:45:09;100189.03;;;16.65;100.00
21234;BME280;10774;42.178;26.578;2023-09-30T01:47:35;100193.81;;;16.52;100.00
21234;BME280;10774;42.178;26.578;2023-09-30T01:50:01;100199.28;;;16.72;100.00
21234;BME280;10774;42.178;26.578;2023-09-30T01:52:26;100190.75;;;16.66;100.00
21234;BME280;10774;42.178;26.578;2023-09-30T01:54:52;100185.47;;;16.64;100.00
21234;BME280;10774;42.178;26.578;2023-09-30T01:57:19;100194.22;;;16.68;100.00
21234;BME280;10774;42.178;26.578;2023-09-30T01:59:45;100201.72;;;16.76;100.00
21234;BME280;10774;42.178;26.578;2023-09-30T02:02:10;100188.94;;;16.66;100.00
21234;BME280;10774;42.178;26.578;2023-09-30T02:04:36;100178.59;;;16.60;100.00
21234;BME280;10774;42.178;26.578;2023-09-30T02:07:01;100178.31;;;16.42;100.00
21234;BME280;10774;42.178;26.578;2023-09-30T02:09:27;100182.97;;;16.52;100.00
21234;BME280;10774;42.178;26.578;2023-09-30T02:11:53;100186.78;;;16.49;100.00
21234;BME280;10774;42.178;26.578;2023-09-30T02:14:20;100193.88;;;16.29;100.00
21234;BME280;10774;42.178;26.578;2023-09-30T02:16:45;100192.53;;;16.35;100.00
21234;BME280;10774;42.178;26.578;2023-09-30T02:19:11;100180.06;;;16.32;100.00
21234;BME280;10774;42.178;26.578;2023-09-30T02:21:38;100180.16;;;16.10;100.00
21234;BME280;10774;42.178;26.578;2023-09-30T02:24:03;100178.69;;;16.06;100.00
21234;BME280;10774;42.178;26.578;2023-09-30T02:26:31;100187.78;;;16.16;100.00
21234;BME280;10774;42.178;26.578;2023-09-30T02:28:58;100189.53;;;16.06;100.00
21234;BME280;10774;42.178;26.578;2023-09-30T02:31:23;100187.28;;;16.11;100.00
21234;BME280;10774;42.178;26.578;2023-09-30T02:33:49;100180.41;;;16.07;100.00
21234;BME280;10774;42.178;26.578;2023-09-30T02:36:15;100177.03;;;15.37;100.00
21234;BME280;10774;42.178;26.578;2023-09-30T02:38:41;100173.59;;;15.69;100.00
21234;BME280;10774;42.178;26.578;2023-09-30T02:41:07;100170.63;;;15.83;100.00
21234;BME280;10774;42.178;26.578;2023-09-30T02:43:33;100162.28;;;15.53;100.00
21234;BME280;10774;42.178;26.578;2023-09-30T02:45:58;100165.22;;;15.27;100.00
21234;BME280;10774;42.178;26.578;2023-09-30T02:48:24;100172.59;;;15.03;100.00
21234;BME280;10774;42.178;26.578;2023-09-30T02:50:49;100170.38;;;15.08;100.00
21234;BME280;10774;42.178;26.578;2023-09-30T02:53:15;100175.53;;;14.88;100.00
21234;BME280;10774;42.178;26.578;2023-09-30T02:55:41;100179.44;;;14.84;100.00
21234;BME280;10774;42.178;26.578;2023-09-30T02:58:07;100169.28;;;14.99;100.00
21234;BME280;10774;42.178;26.578;2023-09-30T03:00:34;100172.34;;;15.06;100.00
21234;BME280;10774;42.178;26.578;2023-09-30T03:03:01;100180.22;;;14.98;100.00
21234;BME280;10774;42.178;26.578;2023-09-30T03:05:27;100169.16;;;15.12;100.00
21234;BME280;10774;42.178;26.578;2023-09-30T03:07:59;100176.53;;;15.32;100.00
21234;BME280;10774;42.178;26.578;2023-09-30T03:10:25;100164.22;;;15.39;100.00
21234;BME280;10774;42.178;26.578;2023-09-30T03:12:55;100166.72;;;15.31;100.00
21234;BME280;10774;42.178;26.578;2023-09-30T03:15:21;100174.09;;;15.40;100.00
21234;BME280;10774;42.178;26.578;2023-09-30T03:17:47;100179.38;;;15.42;100.00
21234;BME280;10774;42.178;26.578;2023-09-30T03:20:12;100172.59;;;15.03;100.00
21234;BME280;10774;42.178;26.578;2023-09-30T03:22:42;100165.97;;;14.60;100.00
21234;BME280;10774;42.178;26.578;2023-09-30T03:25:11;100170.44;;;14.61;100.00
21234;BME280;10774;42.178;26.578;2023-09-30T03:27:37;100169.75;;;14.82;100.00
21234;BME280;10774;42.178;26.578;2023-09-30T03:30:07;100175.53;;;15.00;100.00
21234;BME280;10774;42.178;26.578;2023-09-30T03:32:34;100172.97;;;15.09;100.00
21234;BME280;10774;42.178;26.578;2023-09-30T03:35:02;100172.34;;;15.28;100.00
21234;BME280;10774;42.178;26.578;2023-09-30T03:37:27;100159.59;;;15.19;100.00
21234;BME280;10774;42.178;26.578;2023-09-30T03:39:56;100172.66;;;14.44;100.00
21234;BME280;10774;42.178;26.578;2023-09-30T03:42:22;100172.59;;;14.32;100.00
21234;BME280;10774;42.178;26.578;2023-09-30T03:44:47;100176.53;;;14.52;100.00
21234;BME280;10774;42.178;26.578;2023-09-30T03:47:17;100173.41;;;14.46;100.00
21234;BME280;10774;42.178;26.578;2023-09-30T03:49:42;100174.69;;;14.53;100.00
21234;BME280;10774;42.178;26.578;2023-09-30T03:52:09;100178.56;;;14.84;100.00
21234;BME280;10774;42.178;26.578;2023-09-30T03:54:36;100160.50;;;14.73;100.00
21234;BME280;10774;42.178;26.578;2023-09-30T03:57:03;100167.91;;;14.94;100.00
21234;BME280;10774;42.178;26.578;2023-09-30T03:59:29;100168.91;;;15.04;100.00
21234;BME280;10774;42.178;26.578;2023-09-30T04:01:55;100164.97;;;15.08;100.00
21234;BME280;10774;42.178;26.578;2023-09-30T04:04:22;100167.94;;;15.16;100.00
21234;BME280;10774;42.178;26.578;2023-09-30T04:06:48;100158.09;;;15.04;100.00
21234;BME280;10774;42.178;26.578;2023-09-30T04:09:16;100152.25;;;14.75;100.00
21234;BME280;10774;42.178;26.578;2023-09-30T04:11:42;100164.72;;;15.11;100.00
21234;BME280;10774;42.178;26.578;2023-09-30T04:14:08;100171.13;;;15.21;100.00
21234;BME280;10774;42.178;26.578;2023-09-30T04:16:34;100156.13;;;15.06;100.00
21234;BME280;10774;42.178;26.578;2023-09-30T04:19:00;100171.63;;;15.15;100.00
21234;BME280;10774;42.178;26.578;2023-09-30T04:21:26;100164.88;;;15.32;100.00
21234;BME280;10774;42.178;26.578;2023-09-30T04:23:54;100167.06;;;15.15;100.00
21234;BME280;10774;42.178;26.578;2023-09-30T04:26:19;100170.91;;;15.24;100.00
21234;BME280;10774;42.178;26.578;2023-09-30T04:28:45;100164.50;;;15.14;100.00
21234;BME280;10774;42.178;26.578;2023-09-30T04:31:10;100161.03;;;15.23;100.00
21234;BME280;10774;42.178;26.578;2023-09-30T04:33:39;100171.13;;;15.21;100.00
21234;BME280;10774;42.178;26.578;2023-09-30T04:36:05;100170.91;;;15.24;100.00
21234;BME280;10774;42.178;26.578;2023-09-30T04:38:33;100166.84;;;15.30;100.00
21234;BME280;10774;42.178;26.578;2023-09-30T04:40:59;100165.22;;;15.27;100.00
21234;BME280;10774;42.178;26.578;2023-09-30T04:43:25;100168.19;;;15.35;100.00
21234;BME280;10774;42.178;26.578;2023-09-30T04:45:54;100174.22;;;15.50;100.00
21234;BME280;10774;42.178;26.578;2023-09-30T04:48:22;100167.56;;;15.65;100.00
21234;BME280;10774;42.178;26.578;2023-09-30T04:50:48;100171.13;;;15.77;100.00
21234;BME280;10774;42.178;26.578;2023-09-30T04:53:13;100175.28;;;15.81;100.00
21234;BME280;10774;42.178;26.578;2023-09-30T04:55:41;100166.22;;;15.82;100.00
21234;BME280;10774;42.178;26.578;2023-09-30T04:58:06;100182.53;;;15.92;100.00
21234;BME280;10774;42.178;26.578;2023-09-30T05:00:32;100168.84;;;16.05;100.00
21234;BME280;10774;42.178;26.578;2023-09-30T05:02:58;100175.94;;;16.17;100.00
21234;BME280;10774;42.178;26.578;2023-09-30T05:05:24;100178.59;;;16.28;100.00
21234;BME280;10774;42.178;26.578;2023-09-30T05:07:49;100182.59;;;16.45;100.00
21234;BME280;10774;42.178;26.578;2023-09-30T05:10:15;100168.28;;;16.22;100.00
21234;BME280;10774;42.178;26.578;2023-09-30T05:12:45;100184.03;;;16.28;100.00
21234;BME280;10774;42.178;26.578;2023-09-30T05:15:12;100184.22;;;16.47;100.00
21234;BME280;10774;42.178;26.578;2023-09-30T05:17:38;100180.66;;;16.68;100.00
21234;BME280;10774;42.178;26.578;2023-09-30T05:20:04;100180.66;;;16.68;100.00
21234;BME280;10774;42.178;26.578;2023-09-30T05:22:33;100178.16;;;16.76;100.00
21234;BME280;10774;42.178;26.578;2023-09-30T05:24:58;100185.44;;;16.96;100.00
21234;BME280;10774;42.178;26.578;2023-09-30T05:27:24;100192.47;;;16.78;100.00
21234;BME280;10774;42.178;26.578;2023-09-30T05:29:50;100193.13;;;16.91;100.00
21234;BME280;10774;42.178;26.578;2023-09-30T05:32:15;100180.88;;;16.97;100.00
21234;BME280;10774;42.178;26.578;2023-09-30T05:34:40;100193.88;;;17.24;100.00
21234;BME280;10774;42.178;26.578;2023-09-30T05:37:06;100195.06;;;17.31;100.00
21234;BME280;10774;42.178;26.578;2023-09-30T05:39:31;100195.56;;;17.46;99.82
21234;BME280;10774;42.178;26.578;2023-09-30T05:41:58;100178.34;;;17.57;97.23
21234;BME280;10774;42.178;26.578;2023-09-30T05:44:23;100189.56;;;17.73;93.62
21234;BME280;10774;42.178;26.578;2023-09-30T05:46:51;100194.06;;;17.93;91.21
21234;BME280;10774;42.178;26.578;2023-09-30T05:49:16;100198.19;;;17.97;86.46
21234;BME280;10774;42.178;26.578;2023-09-30T05:51:42;100199.94;;;18.18;86.15
21234;BME280;10774;42.178;26.578;2023-09-30T05:54:07;100198.53;;;18.33;85.02
21234;BME280;10774;42.178;26.578;2023-09-30T05:56:37;100193.50;;;17.69;83.36
21234;BME280;10774;42.178;26.578;2023-09-30T05:59:05;100198.00;;;17.80;83.06
21234;BME280;10774;42.178;26.578;2023-09-30T06:01:32;100201.00;;;17.76;83.35
21234;BME280;10774;42.178;26.578;2023-09-30T06:03:58;100206.63;;;17.33;81.76
21234;BME280;10774;42.178;26.578;2023-09-30T06:06:23;100203.28;;;17.81;82.24
21234;BME280;10774;42.178;26.578;2023-09-30T06:08:51;100206.00;;;17.81;78.33
21234;BME280;10774;42.178;26.578;2023-09-30T06:11:17;100206.81;;;17.72;76.85
21234;BME280;10774;42.178;26.578;2023-09-30T06:13:44;100215.88;;;17.72;77.97
21234;BME280;10774;42.178;26.578;2023-09-30T06:16:10;100215.03;;;17.91;78.14
21234;BME280;10774;42.178;26.578;2023-09-30T06:18:36;100213.72;;;18.36;77.49
21234;BME280;10774;42.178;26.578;2023-09-30T06:21:01;100206.13;;;18.20;75.16
21234;BME280;10774;42.178;26.578;2023-09-30T06:23:29;100214.41;;;18.28;75.56
21234;BME280;10774;42.178;26.578;2023-09-30T06:25:55;100210.13;;;18.16;80.90
21234;BME280;10774;42.178;26.578;2023-09-30T06:28:21;100207.06;;;17.99;80.19
21234;BME280;10774;42.178;26.578;2023-09-30T06:30:51;100197.94;;;18.29;81.96
21234;BME280;10774;42.178;26.578;2023-09-30T06:33:17;100210.59;;;18.40;84.75
21234;BME280;10774;42.178;26.578;2023-09-30T06:35:42;100198.50;;;18.14;88.76
21234;BME280;10774;42.178;26.578;2023-09-30T06:38:16;100214.81;;;18.14;92.37
21234;BME280;10774;42.178;26.578;2023-09-30T06:40:43;100210.28;;;18.63;89.30
21234;BME280;10774;42.178;26.578;2023-09-30T06:43:08;100214.44;;;18.67;90.53
21234;BME280;10774;42.178;26.578;2023-09-30T06:45:33;100211.16;;;18.92;88.17
21234;BME280;10774;42.178;26.578;2023-09-30T06:47:59;100222.44;;;19.07;88.99
21234;BME280;10774;42.178;26.578;2023-09-30T06:50:24;100219.72;;;19.17;86.76
21234;BME280;10774;42.178;26.578;2023-09-30T06:52:50;100222.75;;;19.61;82.39
21234;BME280;10774;42.178;26.578;2023-09-30T06:55:15;100218.03;;;19.90;76.71
21234;BME280;10774;42.178;26.578;2023-09-30T06:57:42;100201.72;;;20.08;73.82
21234;BME280;10774;42.178;26.578;2023-09-30T07:00:13;100213.34;;;20.28;68.01
21234;BME280;10774;42.178;26.578;2023-09-30T07:02:40;100208.69;;;20.38;64.25
21234;BME280;10774;42.178;26.578;2023-09-30T07:05:10;100213.03;;;20.58;61.31
21234;BME280;10774;42.178;26.578;2023-09-30T07:07:36;100210.44;;;20.75;60.11
21234;BME280;10774;42.178;26.578;2023-09-30T07:10:03;100215.47;;;21.05;60.11
21234;BME280;10774;42.178;26.578;2023-09-30T07:12:29;100218.19;;;21.05;59.22
21234;BME280;10774;42.178;26.578;2023-09-30T07:14:57;100210.34;;;21.28;57.00
21234;BME280;10774;42.178;26.578;2023-09-30T07:17:22;100214.56;;;21.23;56.22
21234;BME280;10774;42.178;26.578;2023-09-30T07:19:48;100221.69;;;21.15;56.38
21234;BME280;10774;42.178;26.578;2023-09-30T07:22:14;100222.44;;;21.26;55.96
21234;BME280;10774;42.178;26.578;2023-09-30T07:24:39;100218.69;;;21.27;55.54
21234;BME280;10774;42.178;26.578;2023-09-30T07:27:04;100220.75;;;21.51;55.35
21234;BME280;10774;42.178;26.578;2023-09-30T07:29:31;100223.03;;;21.63;55.79
21234;BME280;10774;42.178;26.578;2023-09-30T07:31:57;100220.81;;;21.67;55.09
21234;BME280;10774;42.178;26.578;2023-09-30T07:34:22;100211.09;;;22.07;53.48
21234;BME280;10774;42.178;26.578;2023-09-30T07:36:48;100227.25;;;22.26;52.24
21234;BME280;10774;42.178;26.578;2023-09-30T07:39:13;100223.84;;;22.32;52.10
21234;BME280;10774;42.178;26.578;2023-09-30T07:41:38;100213.16;;;22.63;50.49
21234;BME280;10774;42.178;26.578;2023-09-30T07:44:04;100222.75;;;22.92;47.52
21234;BME280;10774;42.178;26.578;2023-09-30T07:46:30;100211.47;;;23.11;46.56
21234;BME280;10774;42.178;26.578;2023-09-30T07:48:56;100216.25;;;23.26;46.77
21234;BME280;10774;42.178;26.578;2023-09-30T07:51:24;100211.25;;;23.37;46.66
21234;BME280;10774;42.178;26.578;2023-09-30T07:53:49;100213.66;;;23.24;45.29
21234;BME280;10774;42.178;26.578;2023-09-30T07:56:16;100222.22;;;23.29;45.19
21234;BME280;10774;42.178;26.578;2023-09-30T07:58:41;100219.16;;;23.16;44.69
21234;BME280;10774;42.178;26.578;2023-09-30T08:01:07;100219.31;;;23.22;44.25
21234;BME280;10774;42.178;26.578;2023-09-30T08:03:33;100211.59;;;23.34;44.73
21234;BME280;10774;42.178;26.578;2023-09-30T08:06:00;100220.28;;;23.62;45.03
21234;BME280;10774;42.178;26.578;2023-09-30T08:08:25;100205.84;;;23.77;44.37
21234;BME280;10774;42.178;26.578;2023-09-30T08:10:51;100216.91;;;23.99;43.01
21234;BME280;10774;42.178;26.578;2023-09-30T08:13:21;100219.25;;;24.11;43.89
21234;BME280;10774;42.178;26.578;2023-09-30T08:15:48;100219.63;;;24.31;42.85
21234;BME280;10774;42.178;26.578;2023-09-30T08:18:13;100213.81;;;24.34;42.33
21234;BME280;10774;42.178;26.578;2023-09-30T08:20:39;100214.47;;;24.67;42.80
21234;BME280;10774;42.178;26.578;2023-09-30T08:23:04;100218.06;;;24.67;41.37
21234;BME280;10774;42.178;26.578;2023-09-30T08:25:29;100213.00;;;24.25;41.49
21234;BME280;10774;42.178;26.578;2023-09-30T08:27:55;100225.94;;;24.08;42.63
21234;BME280;10774;42.178;26.578;2023-09-30T08:30:20;100215.25;;;24.21;42.92
21234;BME280;10774;42.178;26.578;2023-09-30T08:32:46;100214.16;;;24.31;42.61
21234;BME280;10774;42.178;26.578;2023-09-30T08:35:11;100214.53;;;24.59;42.04
21234;BME280;10774;42.178;26.578;2023-09-30T08:37:39;100198.22;;;24.57;40.80
21234;BME280;10774;42.178;26.578;2023-09-30T08:40:05;100210.81;;;24.20;42.08
21234;BME280;10774;42.178;26.578;2023-09-30T08:42:32;100216.03;;;24.38;41.37
21234;BME280;10774;42.178;26.578;2023-09-30T08:44:59;100212.75;;;24.35;39.91
21234;BME280;10774;42.178;26.578;2023-09-30T08:47:28;100211.50;;;24.14;40.33
21234;BME280;10774;42.178;26.578;2023-09-30T08:49:54;100212.22;;;24.08;40.26
21234;BME280;10774;42.178;26.578;2023-09-30T08:52:23;100211.56;;;24.06;39.88
21234;BME280;10774;42.178;26.578;2023-09-30T08:54:49;100207.69;;;24.23;40.80
21234;BME280;10774;42.178;26.578;2023-09-30T08:57:18;100209.31;;;24.41;40.54
21234;BME280;10774;42.178;26.578;2023-09-30T08:59:46;100208.84;;;24.83;39.21
21234;BME280;10774;42.178;26.578;2023-09-30T09:02:13;100215.31;;;25.13;39.19
21234;BME280;10774;42.178;26.578;2023-09-30T09:04:39;100211.28;;;25.01;37.98
21234;BME280;10774;42.178;26.578;2023-09-30T09:07:04;100219.84;;;25.06;39.67
21234;BME280;10774;42.178;26.578;2023-09-30T09:09:30;100217.28;;;24.82;38.79
21234;BME280;10774;42.178;26.578;2023-09-30T09:11:57;100212.63;;;25.05;39.25
21234;BME280;10774;42.178;26.578;2023-09-30T09:14:39;100216.59;;;25.02;39.84
21234;BME280;10774;42.178;26.578;2023-09-30T09:17:07;100205.09;;;24.99;40.09
21234;BME280;10774;42.178;26.578;2023-09-30T09:19:33;100193.72;;;25.10;39.17
21234;BME280;10774;42.178;26.578;2023-09-30T09:22:00;100208.72;;;25.22;39.32
21234;BME280;10774;42.178;26.578;2023-09-30T09:24:36;100206.00;;;25.37;38.56
21234;BME280;10774;42.178;26.578;2023-09-30T09:27:10;100202.28;;;25.15;38.81
21234;BME280;10774;42.178;26.578;2023-09-30T09:29:37;100187.03;;;25.27;39.13
21234;BME280;10774;42.178;26.578;2023-09-30T09:34:35;100194.91;;;25.60;39.35
21234;BME280;10774;42.178;26.578;2023-09-30T09:37:21;100180.69;;;25.42;38.76
21234;BME280;10774;42.178;26.578;2023-09-30T09:39:54;100192.25;;;25.37;38.95
21234;BME280;10774;42.178;26.578;2023-09-30T09:42:39;100192.34;;;25.44;38.86
21234;BME280;10774;42.178;26.578;2023-09-30T09:45:05;100172.16;;;25.37;39.41
21234;BME280;10774;42.178;26.578;2023-09-30T09:47:34;100164.69;;;25.75;38.86
21234;BME280;10774;42.178;26.578;2023-09-30T09:50:03;100189.03;;;25.93;38.08
21234;BME280;10774;42.178;26.578;2023-09-30T09:52:31;100178.09;;;25.99;38.14
21234;BME280;10774;42.178;26.578;2023-09-30T09:54:57;100168.66;;;25.87;38.18
21234;BME280;10774;42.178;26.578;2023-09-30T09:57:24;100157.19;;;26.56;38.16
21234;BME280;10774;42.178;26.578;2023-09-30T09:59:52;100161.94;;;25.90;36.91
21234;BME280;10774;42.178;26.578;2023-09-30T10:02:19;100177.09;;;25.86;36.72
21234;BME280;10774;42.178;26.578;2023-09-30T10:04:46;100163.34;;;25.71;37.12
21234;BME280;10774;42.178;26.578;2023-09-30T10:07:33;100180.34;;;25.74;36.83
21234;BME280;10774;42.178;26.578;2023-09-30T10:10:01;100147.75;;;26.07;36.91
21234;BME280;10774;42.178;26.578;2023-09-30T10:12:28;100174.22;;;25.94;36.40
21234;BME280;10774;42.178;26.578;2023-09-30T10:20:33;100160.94;;;26.98;35.89
21234;BME280;10774;42.178;26.578;2023-09-30T10:25:43;100156.38;;;27.33;35.46
21234;BME280;10774;42.178;26.578;2023-09-30T10:28:47;100161.44;;;27.64;34.77
21234;BME280;10774;42.178;26.578;2023-09-30T10:31:20;100158.78;;;27.43;35.16
21234;BME280;10774;42.178;26.578;2023-09-30T10:36:36;100141.53;;;27.34;35.42
21234;BME280;10774;42.178;26.578;2023-09-30T10:39:03;100159.13;;;27.33;35.25
21234;BME280;10774;42.178;26.578;2023-09-30T10:46:57;100145.59;;;26.61;36.05
21234;BME280;10774;42.178;26.578;2023-09-30T10:51:52;100124.66;;;26.66;36.12
21234;BME280;10774;42.178;26.578;2023-09-30T10:54:25;100125.78;;;27.21;35.76
21234;BME280;10774;42.178;26.578;2023-09-30T10:56:51;100125.44;;;27.72;35.31
21234;BME280;10774;42.178;26.578;2023-09-30T10:59:28;100131.88;;;27.17;34.21
21234;BME280;10774;42.178;26.578;2023-09-30T11:04:49;100129.16;;;26.95;34.81
21234;BME280;10774;42.178;26.578;2023-09-30T11:07:22;100110.69;;;27.17;34.36
21234;BME280;10774;42.178;26.578;2023-09-30T11:09:49;100113.41;;;27.52;34.72
21234;BME280;10774;42.178;26.578;2023-09-30T11:12:14;100105.66;;;27.27;34.35
21234;BME280;10774;42.178;26.578;2023-09-30T11:14:40;100109.00;;;27.16;34.39
21234;BME280;10774;42.178;26.578;2023-09-30T11:17:06;100113.56;;;27.78;34.44
21234;BME280;10774;42.178;26.578;2023-09-30T11:19:35;100111.34;;;27.54;34.17
21234;BME280;10774;42.178;26.578;2023-09-30T11:22:02;100115.00;;;27.05;34.22
21234;BME280;10774;42.178;26.578;2023-09-30T11:24:28;100098.25;;;27.00;34.37
21234;BME280;10774;42.178;26.578;2023-09-30T11:26:55;100090.59;;;27.23;34.11
21234;BME280;10774;42.178;26.578;2023-09-30T11:29:23;100101.91;;;27.42;33.46
21234;BME280;10774;42.178;26.578;2023-09-30T11:31:50;100110.03;;;27.50;34.03
21234;BME280;10774;42.178;26.578;2023-09-30T11:34:18;100088.19;;;27.90;33.57
21234;BME280;10774;42.178;26.578;2023-09-30T11:36:49;100085.84;;;27.52;33.85
21234;BME280;10774;42.178;26.578;2023-09-30T11:39:22;100093.09;;;27.53;33.30
21234;BME280;10774;42.178;26.578;2023-09-30T11:41:49;100083.38;;;27.63;33.38
21234;BME280;10774;42.178;26.578;2023-09-30T11:44:15;100086.56;;;28.28;32.54
21234;BME280;10774;42.178;26.578;2023-09-30T11:46:55;100081.34;;;27.79;32.94
21234;BME280;10774;42.178;26.578;2023-09-30T11:49:24;100075.00;;;27.92;32.82
21234;BME280;10774;42.178;26.578;2023-09-30T11:51:51;100070.78;;;28.09;32.57
21234;BME280;10774;42.178;26.578;2023-09-30T11:54:16;100068.78;;;28.64;32.50
21234;BME280;10774;42.178;26.578;2023-09-30T11:56:42;100075.13;;;28.51;31.70
21234;BME280;10774;42.178;26.578;2023-09-30T11:59:08;100067.78;;;27.91;32.38
21234;BME280;10774;42.178;26.578;2023-09-30T12:01:37;100057.16;;;27.87;32.05
21234;BME280;10774;42.178;26.578;2023-09-30T12:04:03;100048.03;;;27.80;32.76
21234;BME280;10774;42.178;26.578;2023-09-30T12:06:29;100057.66;;;28.18;32.24
21234;BME280;10774;42.178;26.578;2023-09-30T12:08:54;100051.69;;;28.14;31.57
21234;BME280;10774;42.178;26.578;2023-09-30T12:11:20;100055.09;;;28.09;31.99
21234;BME280;10774;42.178;26.578;2023-09-30T12:13:49;100051.28;;;28.30;32.08
21234;BME280;10774;42.178;26.578;2023-09-30T12:16:15;100047.88;;;28.15;31.24
21234;BME280;10774;42.178;26.578;2023-09-30T12:18:41;100045.34;;;28.07;31.52
21234;BME280;10774;42.178;26.578;2023-09-30T12:21:10;100042.16;;;28.17;31.05
21234;BME280;10774;42.178;26.578;2023-09-30T12:23:37;100038.13;;;28.19;30.71
21234;BME280;10774;42.178;26.578;2023-09-30T12:26:03;100039.66;;;28.35;30.85
21234;BME280;10774;42.178;26.578;2023-09-30T12:28:32;100040.72;;;28.40;30.67
21234;BME280;10774;42.178;26.578;2023-09-30T12:30:59;100041.59;;;28.54;30.24
21234;BME280;10774;42.178;26.578;2023-09-30T12:33:24;100035.16;;;28.74;30.38
21234;BME280;10774;42.178;26.578;2023-09-30T12:35:50;100031.28;;;27.88;30.44
21234;BME280;10774;42.178;26.578;2023-09-30T12:38:16;100025.16;;;28.13;30.42
21234;BME280;10774;42.178;26.578;2023-09-30T12:40:42;100030.09;;;28.51;30.24
21234;BME280;10774;42.178;26.578;2023-09-30T12:43:09;100010.94;;;28.29;29.68
21234;BME280;10774;42.178;26.578;2023-09-30T12:45:35;100007.75;;;28.85;30.10
21234;BME280;10774;42.178;26.578;2023-09-30T12:48:03;100006.63;;;29.20;29.34
21234;BME280;10774;42.178;26.578;2023-09-30T12:50:29;100006.94;;;28.65;29.71
21234;BME280;10774;42.178;26.578;2023-09-30T12:52:54;100016.47;;;28.82;29.42
21234;BME280;10774;42.178;26.578;2023-09-30T12:55:20;100009.63;;;29.05;29.47
21234;BME280;10774;42.178;26.578;2023-09-30T12:57:45;100009.00;;;29.03;29.33